Aérodrome :
LOGIN :

S'inscrire | Disclaimer

   EN    FR    IT 

 










Légende :    VFR   VFR Marginal   IFR   IFR Intensif   IFR Très Intensif
Visi : 
Plafond : 
>= 8 km
>= 3000ft
5 à 8 km
1000 à 3000 ft
1500m à 5 km
500 à 1000 ft
800 à 1500m
200 à 500 ft
< 800m
< 200 ft
Symboles :   Orages  Brouillard  Fortes neiges  Fortes précipitations  Vent > 20 kt
SIGMETs :   Divers  Orages  Givrage  Turbulence  Onde Orograph.  Cendres Volcan.






- Altitude de l'aérodrome : 36 ft
- Code IATA : LTQ


LFAT - Le Touquet

DERNIER METAR :
  • 241800Z AUTO 24017G29KT 200V270 8000 OVC008 10/09 Q1008 TEMPO 23020G40KT 3000 RA

METARs EXPIRÉS :
  • 241730Z AUTO 24019G30KT 210V270 9999 OVC008 10/09 Q1008 TEMPO 23020G40KT 3000 RA
  • 241700Z AUTO 24017KT 200V270 9999 OVC008 10/09 Q1009 TEMPO 23020G40KT 3000 RA
  • 241630Z AUTO 23018KT 210V270 7000 -RA OVC008 10/09 Q1009 TEMPO 23020G40KT 3000 RA
  • 241600Z AUTO 24018G30KT 200V270 6000 -RA BKN011 OVC018 10/09 Q1009 TEMPO 23020G40KT 3000 RA BKN008
  • 241530Z AUTO 24017KT 210V270 4300 -RA BR BKN010 OVC015 10/09 Q1009 TEMPO 23020G40KT RA

TAF TAF LFAT
Valide du 24 à 15h jusqu'au 25 à 00h UTC


241400Z 2415/2424 24015G30KT 9999 BKN025
BECMG 2415/2417 OVC013
TEMPO 2415/2420 3000 RA BKN008
PROB40
TEMPO 2415/2420 23020G40KT
BECMG 2421/2423 BKN020
ATIS : +33 3 21 06 62 84



MET'MAP, la Météo Aéronautique d'un coup d'oeil ! - Copyright ORBIFLY Décembre 2007 - Disclaimer

ORBIFLY MET'MAP TEAM :

Programmation & Développement : Alexandra Zaïnal
Sur une idée originale de : Baudouin d'Aumeries
Assistance à la programmation : Marc-Olivier Méhu
Soutien technique & logistique : Manuel Goepfert

Contact : metmap@orbifly.com




SOURCES & CREDITS :

   NOAA